OSU weather

The Ohio State University Airport - Don Scott Field
Columbus, Ohio, United States

Public forecast

Using degrees Fahrenheit for public forecast. Weather courtesy of forecast.io.

Current aviation weather report (METAR) for The Ohio State University Airport - Don Scott Field

Retrieved 2019/10/14 11:53 UTC (18 minutes ago):

KOSU 141153Z 00000KT 10SM CLR 04/02 A3003 RMK AO2 SLP170 T00390017 10106 20039 51020

Closest aviation forecast (TAF) to The Ohio State University Airport - Don Scott Field

Closest forecast is John Glenn Columbus International Airport, 9.7 nm (17.9 km) ESE. Retrieved 2019/10/14 12:28 UTC (0 seconds ago):

TAF KCMH 141126Z 1412/1512 26005KT P6SM SKC FM141500 27011G17KT P6SM SKC FM150000 VRB03KT P6SM FEW250